Ash, NC

2:41 PM EDT on September 02, 2015 (GMT -0400)
Bear Branch | | Change Station
CLOSE
Current Station
Personal Weather Station
Location: Ash, NC
Elevation: 36 ft
Nearby Weather Stations

Elev 36 ft 34.08 °N, 78.54 °W | Updated 39 seconds ago

Partly Cloudy
Partly Cloudy
90.9 °F
Feels Like 97 °F
N
2.7
Wind Variable Wind from ESE
Gusts 4.9 mph

Today
High -- | Low -- °F
--% Chance of Precip.
Yesterday
High -- | Low -- °F
Precip. -- in
6:48 AM 7:38 PM
Waning Gibbous, 78% visible
Pressure 30.03 in
Visibility 10.0 miles
Clouds Scattered Clouds 7000 ft
Scattered Clouds 8500 ft
Heat Index 97 °F
Dew Point 70 °F
Humidity 51%
Rainfall 0.00 in
Snow Depth Not available.
UV 6.0 out of 12
Pollen 8.10 out of 12
Air Quality Not available.
Flu Activity Not available.
METAR KCPC 021815Z AUTO 00000KT 10SM SCT070 SCT085 33/20 A3003 RMK AO2 T03270204
Pressure 30.03 in
Visibility 10.0 miles
Clouds Scattered Clouds 7000 ft
Scattered Clouds 8500 ft
Heat Index 97 °F
Dew Point 70 °F
Humidity 51%
Rainfall 0.00 in
Snow Depth Not available.
UV 6.0 out of 12
Pollen 8.10 out of 12
Air Quality Not available.
Flu Activity Not available.
METAR KCPC 021815Z AUTO 00000KT 10SM SCT070 SCT085 33/20 A3003 RMK AO2 T03270204

10-Day Weather Forecast

×

Almanac

Astronomy

Sep. 02, 2015 Rise Set
Actual Time
Civil Twilight
Nautical Twilight
Astronomical Twilight
Moon
Length of Visible Light
Length of Day
Tomorrow will be .
, % of the Moon is Illuminated

Today's Extremes

State Highs State Lows

Community

WunderPhotos

Upload Photos

1,851,793 photos uploaded!

WunderBlogs® & News

Nearby

Air Quality

  Air Quality AQ Index Pollutant
Not available.

Snow Depth

Station Depth Elevation

Earthquake Activity

City Distance Mag. Time & Date
Minimum magnitude displayed is 2.5.

Coastal Water Temperatures

Place Temperature

Stations

Nearby Weather Stations

Station Location Temp. Windchill Dew Point Humidity Wind Precip. Elev Updated Type